Time;durP1;ratioP1;P1;durP2;ratioP2;P2;SDS_P1;SDS_P2;PMS_P1;PMS_P2;Temp;Humidity;BMP_temperature;BMP_pressure;BME280_temperature;BME280_humidity;BME280_pressure;Samples;Min_cycle;Max_cycle;Signal;HPM_P1;HPM_P2
2022/03/14 00:01:29;;;;;;;5.33;4.03;;;18.20;47.30;;;;;;5093499;28;20204;-18
2022/03/14 00:03:55;;;;;;;4.70;3.80;;;18.20;47.40;;;;;;5095326;28;20542;-18
2022/03/14 00:06:21;;;;;;;4.73;4.10;;;18.20;47.40;;;;;;5096764;28;20652;-15
2022/03/14 00:08:47;;;;;;;5.77;4.37;;;18.20;47.30;;;;;;5096099;28;20255;-19
2022/03/14 00:11:17;;;;;;;5.97;4.53;;;18.20;47.40;;;;;;5095829;28;20191;-21
2022/03/14 00:13:46;;;;;;;4.43;3.80;;;18.20;47.40;;;;;;5096441;28;20199;-21
2022/03/14 00:16:38;;;;;;;5.07;3.90;;;18.10;47.30;;;;;;5096442;28;20186;-17
2022/03/14 00:19:06;;;;;;;4.67;3.80;;;18.20;47.40;;;;;;5095982;28;20177;-18
2022/03/14 00:21:38;;;;;;;5.43;4.00;;;18.20;47.40;;;;;;5094689;28;20212;-15
2022/03/14 00:24:06;;;;;;;5.83;4.30;;;18.20;47.40;;;;;;5095452;28;20246;-16
2022/03/14 00:26:33;;;;;;;5.70;3.77;;;18.20;47.40;;;;;;5095302;28;20171;-17
2022/03/14 00:28:59;;;;;;;5.27;4.00;;;18.10;47.70;;;;;;5097195;28;20191;-18
2022/03/14 00:31:25;;;;;;;4.47;3.80;;;18.10;47.30;;;;;;5095751;28;20236;-17
2022/03/14 00:33:51;;;;;;;4.40;3.60;;;18.10;47.30;;;;;;5096948;28;20276;-17
2022/03/14 00:36:18;;;;;;;4.73;3.93;;;18.10;47.40;;;;;;5096041;28;20306;-20
2022/03/14 00:38:44;;;;;;;4.03;3.60;;;18.10;47.40;;;;;;5096703;28;20265;-20
2022/03/14 00:41:09;;;;;;;4.93;3.90;;;18.10;47.40;;;;;;5097016;28;20261;-16
2022/03/14 00:43:35;;;;;;;6.07;4.40;;;18.10;47.30;;;;;;5096582;28;20269;-16
2022/03/14 00:46:02;;;;;;;3.97;3.47;;;18.10;47.30;;;;;;5094061;28;20234;-17
2022/03/14 00:48:28;;;;;;;4.37;3.77;;;18.10;47.40;;;;;;5095998;28;20591;-17
2022/03/14 00:50:54;;;;;;;4.10;3.67;;;18.10;47.40;;;;;;5097636;28;20229;-16
2022/03/14 00:53:20;;;;;;;4.93;3.90;;;18.10;47.40;;;;;;5096016;28;20217;-16
2022/03/14 00:55:46;;;;;;;4.53;3.63;;;18.10;47.40;;;;;;5097035;28;20265;-18
2022/03/14 00:58:12;;;;;;;5.17;3.97;;;18.10;47.40;;;;;;5096696;28;20468;-17
2022/03/14 01:00:38;;;;;;;4.57;3.60;;;18.10;47.40;;;;;;5096209;28;20172;-19
2022/03/14 01:03:04;;;;;;;4.57;3.80;;;18.10;47.40;;;;;;5095302;28;20180;-16
2022/03/14 01:05:30;;;;;;;4.17;3.57;;;18.10;47.40;;;;;;5096074;28;20176;-20
2022/03/14 01:07:56;;;;;;;4.13;3.60;;;18.10;47.40;;;;;;5096517;28;20266;-16
2022/03/14 01:10:23;;;;;;;3.83;3.37;;;18.10;47.40;;;;;;5094796;28;20271;-16
2022/03/14 01:12:49;;;;;;;3.90;3.33;;;18.10;47.40;;;;;;5094512;28;20219;-18
2022/03/14 01:15:15;;;;;;;4.50;3.60;;;18.10;47.40;;;;;;5093754;28;20177;-16
2022/03/14 01:17:41;;;;;;;4.10;3.30;;;18.10;47.40;;;;;;5095637;28;20175;-17
2022/03/14 01:20:08;;;;;;;4.57;3.40;;;18.00;47.30;;;;;;5095448;28;20569;-14
2022/03/14 01:22:35;;;;;;;3.73;3.33;;;18.10;47.40;;;;;;5096318;28;20571;-16
2022/03/14 01:25:01;;;;;;;3.70;3.30;;;18.00;47.30;;;;;;5095253;28;20686;-15
2022/03/14 01:27:27;;;;;;;3.50;3.20;;;18.00;47.40;;;;;;5094301;28;20199;-18
2022/03/14 01:29:53;;;;;;;3.67;3.10;;;18.00;47.40;;;;;;5093015;28;20217;-18
2022/03/14 01:32:18;;;;;;;4.17;3.37;;;18.00;47.40;;;;;;5094422;28;20173;-18
2022/03/14 01:34:44;;;;;;;4.10;3.33;;;18.00;47.40;;;;;;5094178;28;20660;-20
2022/03/14 01:37:11;;;;;;;4.33;3.50;;;18.00;47.40;;;;;;5095414;28;20176;-16
2022/03/14 01:39:37;;;;;;;4.43;3.33;;;18.00;47.40;;;;;;5095719;28;20433;-15
2022/03/14 01:42:03;;;;;;;4.93;3.50;;;18.00;47.40;;;;;;5094020;28;20441;-17
2022/03/14 01:44:30;;;;;;;4.10;3.40;;;18.00;47.40;;;;;;5094332;28;20174;-18
2022/03/14 01:46:57;;;;;;;3.47;2.97;;;18.00;47.40;;;;;;5093611;28;20189;-17
2022/03/14 01:49:23;;;;;;;4.07;3.03;;;18.00;47.40;;;;;;5094864;28;20178;-19
2022/03/14 01:51:52;;;;;;;4.73;3.40;;;18.00;47.40;;;;;;5094202;28;20182;-16
2022/03/14 01:54:19;;;;;;;4.67;3.23;;;18.00;47.40;;;;;;5094247;28;20229;-20
2022/03/14 01:56:46;;;;;;;3.80;3.30;;;18.00;47.40;;;;;;5094178;28;20178;-16
2022/03/14 01:59:13;;;;;;;4.47;3.20;;;17.90;47.40;;;;;;5095289;28;20546;-16
2022/03/14 02:01:38;;;;;;;3.90;3.50;;;18.00;47.40;;;;;;5094121;28;20175;-17
2022/03/14 02:04:08;;;;;;;3.70;3.23;;;18.00;47.40;;;;;;5096603;28;20170;-17
2022/03/14 02:06:35;;;;;;;3.90;3.20;;;18.00;47.40;;;;;;5094811;28;20217;-15
2022/03/14 02:09:02;;;;;;;4.00;3.13;;;18.00;47.40;;;;;;5095115;28;20180;-16
2022/03/14 02:11:28;;;;;;;3.93;3.10;;;17.90;47.30;;;;;;5094995;28;20226;-15
2022/03/14 02:13:53;;;;;;;3.97;3.37;;;18.00;47.40;;;;;;5093320;28;20210;-15
2022/03/14 02:16:19;;;;;;;3.87;2.73;;;17.90;47.30;;;;;;5093781;28;20175;-15
2022/03/14 02:18:44;;;;;;;4.00;3.30;;;17.90;47.40;;;;;;5094303;28;20178;-16
2022/03/14 02:21:12;;;;;;;3.73;3.30;;;17.90;47.30;;;;;;5095323;28;20178;-14
2022/03/14 02:23:38;;;;;;;3.43;3.03;;;17.90;47.30;;;;;;5095055;28;20463;-18
2022/03/14 02:26:03;;;;;;;3.70;2.90;;;17.90;47.70;;;;;;5094786;28;20549;-16
2022/03/14 02:28:31;;;;;;;4.60;3.13;;;17.90;47.30;;;;;;5096070;28;20192;-16
2022/03/14 02:30:57;;;;;;;3.30;2.90;;;17.90;47.40;;;;;;5095573;28;20167;-17
2022/03/14 02:33:23;;;;;;;4.60;3.17;;;17.90;47.30;;;;;;5095630;28;20216;-17
2022/03/14 02:35:49;;;;;;;4.80;3.27;;;17.90;47.30;;;;;;5093380;28;20168;-17
2022/03/14 02:38:17;;;;;;;3.60;2.80;;;17.90;47.30;;;;;;5094033;28;20203;-18
2022/03/14 02:40:46;;;;;;;3.10;2.80;;;17.90;47.30;;;;;;5092347;28;20182;-16
2022/03/14 02:43:14;;;;;;;3.37;3.07;;;17.90;47.70;;;;;;5093738;28;20175;-15
2022/03/14 02:45:41;;;;;;;3.20;2.90;;;17.90;47.30;;;;;;5098848;28;20589;-16
2022/03/14 02:48:07;;;;;;;3.33;2.90;;;17.90;47.30;;;;;;5099409;28;20168;-15
2022/03/14 02:50:34;;;;;;;3.43;2.87;;;17.90;47.30;;;;;;5098754;28;20448;-17
2022/03/14 02:53:00;;;;;;;3.40;2.83;;;17.80;47.30;;;;;;5099647;28;20205;-20
2022/03/14 02:55:26;;;;;;;3.40;2.90;;;17.80;47.30;;;;;;5098422;28;20172;-15
2022/03/14 02:57:52;;;;;;;3.30;2.90;;;17.80;47.30;;;;;;5089602;28;20511;-17
2022/03/14 03:00:18;;;;;;;3.50;2.90;;;17.80;47.30;;;;;;5096995;28;20284;-17
2022/03/14 03:02:44;;;;;;;2.93;2.53;;;17.80;47.30;;;;;;5098713;28;20159;-18
2022/03/14 03:05:18;;;;;;;2.67;2.43;;;17.80;47.30;;;;;;5097237;28;20264;-17
2022/03/14 03:07:46;;;;;;;2.90;2.60;;;17.80;47.30;;;;;;5097382;28;20201;-16
2022/03/14 03:10:12;;;;;;;3.90;2.70;;;17.80;47.30;;;;;;5097500;28;20463;-15
2022/03/14 03:12:40;;;;;;;3.10;2.80;;;17.80;47.30;;;;;;5096625;28;20183;-16
2022/03/14 03:15:07;;;;;;;3.00;2.70;;;17.80;47.30;;;;;;5097525;28;20341;-17
2022/03/14 03:17:33;;;;;;;2.87;2.50;;;17.80;47.30;;;;;;5098084;28;20185;-15
2022/03/14 03:19:58;;;;;;;3.20;2.90;;;17.80;47.40;;;;;;5098781;28;20170;-20
2022/03/14 03:22:27;;;;;;;2.93;2.50;;;17.80;47.30;;;;;;5097636;28;20195;-20
2022/03/14 03:24:53;;;;;;;2.93;2.57;;;17.80;47.40;;;;;;5098418;28;20264;-18
2022/03/14 03:27:19;;;;;;;3.20;2.90;;;17.80;47.40;;;;;;5098118;28;20274;-18
2022/03/14 03:29:45;;;;;;;2.97;2.53;;;17.80;47.40;;;;;;5098449;28;20166;-17
2022/03/14 03:32:12;;;;;;;2.63;2.40;;;17.80;47.40;;;;;;5098612;28;20171;-14
2022/03/14 03:34:37;;;;;;;2.90;2.60;;;17.70;47.40;;;;;;5098641;28;20213;-18
2022/03/14 03:37:03;;;;;;;2.63;2.43;;;17.80;47.50;;;;;;5097790;28;20171;-16
2022/03/14 03:39:30;;;;;;;2.50;2.30;;;17.70;47.40;;;;;;5098331;28;20172;-17
2022/03/14 03:41:56;;;;;;;3.07;2.43;;;17.70;47.40;;;;;;5098044;28;20551;-16
2022/03/14 03:44:21;;;;;;;2.83;2.40;;;17.70;47.40;;;;;;5097109;28;20184;-18
2022/03/14 03:46:47;;;;;;;3.20;2.70;;;17.70;47.40;;;;;;5097469;28;20175;-16
2022/03/14 03:49:13;;;;;;;2.67;2.40;;;17.70;47.40;;;;;;5098215;28;20308;-19
2022/03/14 03:51:39;;;;;;;3.87;2.60;;;17.70;47.40;;;;;;5097930;28;20178;-17
2022/03/14 03:54:04;;;;;;;2.53;2.33;;;17.70;47.40;;;;;;5098315;28;20209;-16
2022/03/14 03:56:30;;;;;;;2.40;2.20;;;17.70;47.50;;;;;;5096533;28;20179;-16
2022/03/14 03:58:56;;;;;;;2.40;2.20;;;17.70;47.50;;;;;;5097798;28;20286;-19
2022/03/14 04:01:22;;;;;;;2.80;2.43;;;17.70;47.50;;;;;;5096641;28;20178;-18
2022/03/14 04:03:54;;;;;;;2.57;2.30;;;17.70;47.50;;;;;;5097036;28;20207;-20
2022/03/14 04:06:47;;;;;;;2.67;2.27;;;17.70;47.60;;;;;;5097218;28;20176;-19
2022/03/14 04:09:11;;;;;;;2.40;2.03;;;17.70;47.60;;;;;;5097916;28;20190;-19
2022/03/14 04:11:41;;;;;;;2.53;2.10;;;17.70;47.60;;;;;;5095135;28;20171;-16
2022/03/14 04:14:09;;;;;;;3.27;2.37;;;17.60;47.60;;;;;;5079812;28;20478;-15
2022/03/14 04:16:34;;;;;;;2.57;2.13;;;17.60;47.60;;;;;;5096594;28;20162;-19
2022/03/14 04:19:00;;;;;;;2.30;2.10;;;17.60;47.60;;;;;;5096232;28;20170;-17
2022/03/14 04:21:26;;;;;;;2.40;2.20;;;17.60;47.60;;;;;;5095727;28;20247;-17
2022/03/14 04:23:52;;;;;;;2.33;2.13;;;17.60;47.60;;;;;;5097255;28;20296;-15
2022/03/14 04:26:17;;;;;;;2.53;2.07;;;17.70;47.70;;;;;;5097033;28;20257;-16
2022/03/14 04:28:43;;;;;;;2.73;2.10;;;17.60;47.70;;;;;;5096834;28;20163;-17
2022/03/14 04:31:09;;;;;;;2.40;2.20;;;17.70;48.10;;;;;;5095482;28;20563;-18
2022/03/14 04:33:36;;;;;;;2.50;2.30;;;17.60;47.70;;;;;;5097143;28;20478;-17
2022/03/14 04:36:04;;;;;;;2.30;2.10;;;17.60;47.70;;;;;;5096328;28;20177;-18
2022/03/14 04:38:30;;;;;;;2.33;2.07;;;17.60;47.70;;;;;;5096963;28;20303;-18
2022/03/14 04:40:56;;;;;;;2.37;2.13;;;17.60;47.70;;;;;;5096083;28;20554;-19
2022/03/14 04:43:22;;;;;;;2.40;2.10;;;17.60;47.80;;;;;;5096513;28;20172;-19
2022/03/14 04:45:48;;;;;;;2.10;1.90;;;17.70;47.80;;;;;;5095709;28;20177;-20
2022/03/14 04:48:15;;;;;;;2.50;2.10;;;17.60;47.80;;;;;;5095351;28;20172;-15
2022/03/14 04:50:42;;;;;;;2.07;1.90;;;17.60;47.80;;;;;;5095281;28;20251;-20
2022/03/14 04:53:08;;;;;;;2.50;2.20;;;17.60;47.80;;;;;;5095758;28;20198;-18
2022/03/14 04:55:35;;;;;;;2.20;1.90;;;17.60;47.90;;;;;;5096103;28;20180;-17
2022/03/14 04:58:02;;;;;;;2.27;2.07;;;17.60;47.80;;;;;;5095415;28;20223;-18
2022/03/14 05:00:29;;;;;;;2.93;1.90;;;17.60;47.90;;;;;;5093143;28;20345;-17
2022/03/14 05:03:02;;;;;;;1.90;1.80;;;17.60;47.90;;;;;;5094443;28;20175;-18
2022/03/14 05:05:29;;;;;;;2.20;2.00;;;17.60;47.90;;;;;;5095034;28;20368;-20
2022/03/14 05:07:55;;;;;;;2.23;2.00;;;17.60;47.90;;;;;;5093258;28;20175;-20
2022/03/14 05:10:21;;;;;;;2.13;1.93;;;17.60;47.90;;;;;;5094325;28;20443;-21
2022/03/14 05:12:48;;;;;;;1.90;1.80;;;17.60;47.90;;;;;;5095969;28;20205;-18
2022/03/14 05:15:17;;;;;;;1.80;1.70;;;17.60;47.90;;;;;;5095170;28;20446;-19
2022/03/14 05:17:44;;;;;;;2.13;1.93;;;17.60;47.90;;;;;;5095054;28;20173;-18
2022/03/14 05:20:10;;;;;;;2.20;1.70;;;17.60;48.00;;;;;;5095546;28;20182;-21
2022/03/14 05:22:48;;;;;;;1.97;1.77;;;17.60;48.00;;;;;;5096140;28;20462;-19
2022/03/14 05:25:19;;;;;;;2.37;1.90;;;17.60;48.00;;;;;;5094489;28;20522;-20
2022/03/14 05:27:45;;;;;;;1.80;1.70;;;17.60;48.00;;;;;;5095430;28;20165;-20
2022/03/14 05:30:11;;;;;;;2.13;1.60;;;17.50;47.90;;;;;;5094454;28;20163;-18
2022/03/14 05:32:39;;;;;;;1.97;1.77;;;17.50;48.00;;;;;;5093536;28;20180;-22
2022/03/14 05:35:06;;;;;;;1.80;1.70;;;17.60;48.00;;;;;;5093601;28;20714;-17
2022/03/14 05:37:32;;;;;;;2.10;1.77;;;17.60;48.00;;;;;;5093597;28;20283;-19
2022/03/14 05:39:58;;;;;;;2.00;1.73;;;17.50;48.00;;;;;;5093517;28;20182;-17
2022/03/14 05:42:25;;;;;;;1.70;1.60;;;17.60;48.10;;;;;;5094195;28;20260;-18
2022/03/14 05:44:51;;;;;;;2.10;1.80;;;17.50;48.10;;;;;;5093648;28;20175;-17
2022/03/14 05:47:18;;;;;;;1.60;1.50;;;17.60;48.20;;;;;;5093775;28;20185;-16
2022/03/14 05:49:44;;;;;;;1.87;1.70;;;17.50;48.20;;;;;;5093272;28;20182;-20
2022/03/14 05:52:10;;;;;;;1.97;1.77;;;17.50;48.20;;;;;;5093684;28;20576;-17
2022/03/14 05:54:37;;;;;;;1.83;1.73;;;17.50;48.10;;;;;;5093597;28;20328;-22
2022/03/14 05:57:02;;;;;;;2.30;1.70;;;17.50;48.20;;;;;;5093142;28;20250;-20
2022/03/14 05:59:28;;;;;;;2.33;1.70;;;17.50;48.20;;;;;;5092226;28;20224;-21
2022/03/14 06:01:54;;;;;;;2.27;1.63;;;17.50;48.20;;;;;;5092275;28;20222;-17
2022/03/14 06:04:20;;;;;;;1.73;1.60;;;17.50;48.20;;;;;;5093163;28;20633;-20
2022/03/14 06:06:47;;;;;;;1.87;1.67;;;17.50;48.20;;;;;;5093095;28;20181;-19
2022/03/14 06:09:13;;;;;;;1.53;1.43;;;17.50;48.30;;;;;;5090628;28;20280;-19
2022/03/14 06:11:39;;;;;;;2.77;1.60;;;17.50;48.30;;;;;;5090892;28;20339;-21
2022/03/14 06:14:05;;;;;;;2.07;1.67;;;17.50;48.30;;;;;;5090676;28;20202;-17
2022/03/14 06:16:31;;;;;;;2.60;1.70;;;17.50;48.30;;;;;;5091125;28;20174;-15
2022/03/14 06:18:57;;;;;;;2.40;1.50;;;17.50;48.30;;;;;;5092561;28;20184;-15
2022/03/14 06:21:24;;;;;;;1.60;1.50;;;17.50;48.30;;;;;;5094734;28;20190;-18
2022/03/14 06:23:50;;;;;;;2.17;1.63;;;17.50;48.40;;;;;;5094488;28;20177;-18
2022/03/14 06:26:17;;;;;;;1.57;1.47;;;17.50;48.40;;;;;;5095249;28;20177;-19
2022/03/14 06:28:42;;;;;;;2.10;1.67;;;17.50;48.50;;;;;;5092831;28;20204;-20
2022/03/14 06:31:09;;;;;;;1.93;1.50;;;17.60;48.60;;;;;;5095785;28;20458;-19
2022/03/14 06:33:35;;;;;;;3.30;1.80;;;17.50;48.70;;;;;;5095873;28;20199;-16
2022/03/14 06:36:02;;;;;;;2.00;1.70;;;17.60;49.30;;;;;;5093775;28;20684;-18
2022/03/14 06:38:28;;;;;;;3.27;1.83;;;17.60;49.00;;;;;;5093909;28;20551;-20
2022/03/14 06:40:56;;;;;;;1.63;1.40;;;17.60;49.10;;;;;;5093139;28;20171;-17
2022/03/14 06:43:22;;;;;;;2.37;1.70;;;17.60;49.20;;;;;;5093594;28;20189;-17
2022/03/14 06:45:48;;;;;;;2.20;1.60;;;17.60;49.20;;;;;;5091847;28;20173;-18
2022/03/14 06:48:15;;;;;;;3.37;1.73;;;17.60;49.40;;;;;;5093169;28;20185;-18
2022/03/14 06:50:41;;;;;;;5.57;1.80;;;17.60;49.40;;;;;;5094763;28;20260;-18
2022/03/14 06:53:07;;;;;;;2.43;1.77;;;17.60;49.60;;;;;;5092448;28;20252;-17
2022/03/14 06:55:33;;;;;;;2.50;1.70;;;17.60;49.60;;;;;;5093101;28;20165;-17
2022/03/14 06:57:59;;;;;;;2.70;1.70;;;17.60;49.70;;;;;;5093081;28;20191;-18
2022/03/14 07:00:26;;;;;;;3.57;1.77;;;17.60;49.80;;;;;;5092461;28;20192;-20
2022/03/14 07:02:52;;;;;;;2.17;1.80;;;17.70;49.90;;;;;;5093652;28;20178;-18
2022/03/14 07:05:23;;;;;;;2.97;1.80;;;17.70;50.00;;;;;;5093533;28;20236;-16
2022/03/14 07:07:50;;;;;;;2.53;1.90;;;17.60;50.10;;;;;;5091897;28;20177;-18
2022/03/14 07:10:16;;;;;;;1.73;1.63;;;17.70;50.30;;;;;;5093970;28;20202;-18
2022/03/14 07:12:47;;;;;;;1.70;1.57;;;17.70;50.30;;;;;;5092542;28;20503;-20
2022/03/14 07:15:16;;;;;;;1.97;1.60;;;17.70;50.40;;;;;;5092981;28;20559;-20
2022/03/14 07:17:43;;;;;;;5.53;1.80;;;17.70;50.40;;;;;;5090933;28;20167;-16
2022/03/14 07:20:11;;;;;;;2.50;1.60;;;17.70;50.50;;;;;;5092720;28;20170;-19
2022/03/14 07:23:00;;;;;;;2.97;1.87;;;17.70;50.70;;;;;;5093341;28;20601;-18
2022/03/14 07:25:31;;;;;;;1.70;1.60;;;17.70;50.70;;;;;;5091831;28;20167;-22
2022/03/14 07:28:01;;;;;;;3.37;1.60;;;17.70;50.70;;;;;;5091239;28;20174;-17
2022/03/14 07:30:27;;;;;;;2.60;1.60;;;17.70;50.60;;;;;;5090744;28;20385;-17
2022/03/14 07:32:53;;;;;;;2.33;1.63;;;17.70;50.50;;;;;;5091388;28;20249;-19
2022/03/14 07:35:19;;;;;;;2.63;1.70;;;17.70;50.50;;;;;;5092710;28;20467;-20
2022/03/14 07:37:45;;;;;;;2.03;1.60;;;17.70;50.60;;;;;;5093451;28;20172;-16
2022/03/14 07:40:12;;;;;;;1.83;1.53;;;17.70;50.60;;;;;;5092704;28;20174;-16
2022/03/14 07:42:41;;;;;;;2.27;1.70;;;17.70;50.50;;;;;;5092242;28;20554;-18
2022/03/14 07:45:07;;;;;;;2.70;1.93;;;17.70;50.60;;;;;;5093356;28;20167;-18
2022/03/14 07:47:33;;;;;;;3.47;1.60;;;17.70;50.50;;;;;;5092930;28;20620;-17
2022/03/14 07:49:58;;;;;;;3.63;1.40;;;17.70;50.50;;;;;;5092000;28;20186;-20
2022/03/14 07:52:25;;;;;;;4.77;1.67;;;17.80;50.60;;;;;;5093447;28;20365;-20
2022/03/14 07:54:51;;;;;;;3.53;1.80;;;17.70;50.50;;;;;;5091740;28;20294;-19
2022/03/14 07:57:17;;;;;;;1.87;1.60;;;17.70;50.50;;;;;;5093140;28;20174;-15
2022/03/14 07:59:46;;;;;;;2.10;1.40;;;17.80;50.60;;;;;;5092083;28;20162;-19
2022/03/14 08:02:13;;;;;;;3.00;1.67;;;17.70;50.50;;;;;;5093684;28;20508;-17
2022/03/14 08:04:40;;;;;;;1.90;1.40;;;17.80;50.50;;;;;;5090721;28;20319;-18
2022/03/14 08:07:06;;;;;;;2.37;1.60;;;17.80;50.50;;;;;;5091937;28;20199;-18
2022/03/14 08:09:32;;;;;;;2.13;1.80;;;17.80;50.50;;;;;;5091705;28;20179;-19
2022/03/14 08:11:59;;;;;;;2.00;1.50;;;17.80;50.50;;;;;;5090724;28;20179;-17
2022/03/14 08:14:25;;;;;;;3.00;1.70;;;17.80;50.40;;;;;;5090507;28;20219;-17
2022/03/14 08:16:50;;;;;;;2.17;1.50;;;17.80;50.40;;;;;;5073288;28;20177;-16
2022/03/14 08:19:16;;;;;;;1.70;1.60;;;17.80;50.40;;;;;;5090356;28;20444;-21
2022/03/14 08:21:42;;;;;;;2.37;1.50;;;17.80;50.40;;;;;;5091629;28;20338;-21
2022/03/14 08:24:08;;;;;;;1.73;1.50;;;17.80;50.40;;;;;;5091755;28;20274;-17
2022/03/14 08:26:34;;;;;;;2.07;1.50;;;17.80;50.40;;;;;;5091087;28;20198;-18
2022/03/14 08:29:00;;;;;;;1.77;1.40;;;17.80;50.30;;;;;;5090019;28;20175;-20
2022/03/14 08:31:26;;;;;;;1.40;1.30;;;17.80;50.30;;;;;;5091595;28;20579;-21
2022/03/14 08:33:52;;;;;;;2.03;1.43;;;17.80;50.30;;;;;;5091181;28;20199;-20
2022/03/14 08:36:21;;;;;;;1.50;1.40;;;17.80;50.30;;;;;;5091230;28;20620;-20
2022/03/14 08:38:50;;;;;;;2.27;1.40;;;17.80;50.30;;;;;;5089782;28;20167;-22
2022/03/14 08:41:16;;;;;;;1.50;1.40;;;17.90;50.30;;;;;;5090292;28;20444;-17
2022/03/14 08:43:43;;;;;;;2.33;1.40;;;17.90;50.30;;;;;;5090361;28;20171;-20
2022/03/14 08:46:10;;;;;;;2.13;1.50;;;17.90;50.40;;;;;;5091151;28;20309;-17
2022/03/14 08:48:36;;;;;;;1.60;1.20;;;17.90;50.40;;;;;;5090800;28;20276;-19
2022/03/14 08:51:02;;;;;;;1.50;1.33;;;17.90;50.30;;;;;;5090804;28;20316;-21
2022/03/14 08:53:27;;;;;;;1.70;1.60;;;17.90;50.30;;;;;;5090110;28;20202;-20
2022/03/14 08:55:55;;;;;;;4.23;1.40;;;18.00;50.30;;;;;;5090904;28;20585;-16
2022/03/14 08:58:21;;;;;;;1.80;1.30;;;18.00;50.30;;;;;;5091061;28;20234;-18
2022/03/14 09:00:47;;;;;;;1.43;1.20;;;18.10;50.30;;;;;;5088759;28;20219;-18
2022/03/14 09:03:13;;;;;;;2.53;1.30;;;18.10;50.30;;;;;;5090974;28;20440;-17
2022/03/14 09:05:39;;;;;;;1.70;1.57;;;18.10;50.30;;;;;;5089187;28;20183;-18
2022/03/14 09:08:05;;;;;;;1.30;1.20;;;18.10;50.30;;;;;;5088707;28;20301;-22
2022/03/14 09:10:36;;;;;;;1.90;1.50;;;18.10;50.20;;;;;;5091365;28;20230;-21
2022/03/14 09:13:02;;;;;;;2.03;1.50;;;18.10;50.40;;;;;;5091047;28;20294;-21
2022/03/14 09:15:29;;;;;;;1.63;1.40;;;18.10;50.30;;;;;;5088770;28;20189;-22
2022/03/14 09:17:57;;;;;;;1.27;1.17;;;18.10;50.30;;;;;;5089150;28;20351;-16
2022/03/14 09:20:24;;;;;;;2.70;1.37;;;18.10;50.40;;;;;;5094735;28;20482;-19
2022/03/14 09:22:51;;;;;;;1.30;1.20;;;18.10;50.40;;;;;;5096491;28;20206;-21
2022/03/14 09:25:19;;;;;;;1.80;1.30;;;18.10;50.40;;;;;;5096051;28;20591;-18
2022/03/14 09:27:45;;;;;;;1.30;1.20;;;18.10;50.40;;;;;;5095992;28;20180;-21
2022/03/14 09:30:12;;;;;;;2.20;1.40;;;18.10;50.80;;;;;;5095968;28;20167;-18
2022/03/14 09:32:38;;;;;;;1.90;1.50;;;18.10;50.40;;;;;;5095344;28;20175;-16
2022/03/14 09:35:07;;;;;;;1.43;1.27;;;18.10;50.40;;;;;;5095623;28;20243;-18
2022/03/14 09:37:35;;;;;;;2.93;1.60;;;18.10;50.50;;;;;;5095789;28;20314;-19
2022/03/14 09:40:05;;;;;;;1.63;1.43;;;18.10;50.50;;;;;;5096282;28;20230;-22
2022/03/14 09:42:36;;;;;;;1.67;1.20;;;18.20;50.50;;;;;;5089778;28;20470;-20
2022/03/14 09:45:04;;;;;;;1.70;1.30;;;18.20;50.50;;;;;;5089842;28;20213;-17
2022/03/14 09:47:35;;;;;;;2.50;1.60;;;18.20;50.40;;;;;;5088874;28;20187;-19
2022/03/14 09:50:04;;;;;;;2.73;1.47;;;18.20;50.80;;;;;;5089284;28;20199;-19
2022/03/14 09:52:33;;;;;;;1.87;1.27;;;18.30;50.50;;;;;;5090762;28;20436;-18
2022/03/14 09:54:58;;;;;;;1.80;1.57;;;18.30;50.50;;;;;;5089265;28;20223;-19
2022/03/14 09:57:24;;;;;;;3.87;1.70;;;18.30;50.50;;;;;;5089049;28;20671;-20
2022/03/14 09:59:51;;;;;;;2.80;1.30;;;18.30;50.50;;;;;;5087074;28;20638;-18
2022/03/14 10:02:17;;;;;;;2.90;1.40;;;18.30;50.50;;;;;;5090381;28;20171;-18
2022/03/14 10:04:42;;;;;;;2.10;1.40;;;18.30;50.50;;;;;;5096509;28;20177;-19
2022/03/14 10:07:08;;;;;;;3.20;1.60;;;18.40;50.60;;;;;;5095657;28;20185;-17
2022/03/14 10:09:35;;;;;;;3.03;1.63;;;18.30;50.60;;;;;;5088790;28;20428;-21
2022/03/14 10:12:01;;;;;;;2.63;1.70;;;18.30;50.70;;;;;;5088173;28;20281;-22
2022/03/14 10:14:27;;;;;;;4.17;1.73;;;18.40;50.70;;;;;;5089084;28;20226;-17
2022/03/14 10:16:56;;;;;;;1.87;1.50;;;18.40;50.70;;;;;;5089302;28;20595;-20
2022/03/14 10:19:34;;;;;;;2.03;1.50;;;18.40;50.80;;;;;;5087671;28;20195;-17
2022/03/14 10:22:18;;;;;;;3.57;1.80;;;18.40;50.80;;;;;;5087632;28;20599;-20
2022/03/14 10:24:46;;;;;;;3.33;1.30;;;18.40;50.80;;;;;;5088434;28;20187;-18
2022/03/14 10:27:16;;;;;;;3.03;1.67;;;18.30;50.90;;;;;;5090737;28;20264;-17
2022/03/14 10:29:43;;;;;;;2.40;1.70;;;18.30;51.00;;;;;;5088763;28;20168;-17
2022/03/14 10:32:29;;;;;;;2.63;1.50;;;18.30;51.00;;;;;;5088773;28;20172;-18
2022/03/14 10:35:00;;;;;;;2.43;1.30;;;18.30;51.00;;;;;;5087585;28;20418;-20
2022/03/14 10:37:28;;;;;;;1.83;1.43;;;18.30;51.00;;;;;;5088191;28;20248;-18
2022/03/14 10:40:20;;;;;;;3.57;1.50;;;18.30;51.00;;;;;;5088193;28;20409;-19
2022/03/14 10:42:47;;;;;;;2.80;1.60;;;18.30;51.10;;;;;;5085036;28;20179;-20
2022/03/14 10:45:17;;;;;;;2.17;1.40;;;18.30;51.20;;;;;;5089160;28;20179;-21
2022/03/14 10:47:51;;;;;;;2.13;1.47;;;18.40;51.20;;;;;;5087553;28;20558;-20
2022/03/14 10:50:38;;;;;;;2.13;1.60;;;18.30;51.20;;;;;;5089376;28;20169;-20
2022/03/14 10:53:09;;;;;;;3.17;1.70;;;18.30;51.20;;;;;;5088689;28;20535;-19
2022/03/14 10:55:40;;;;;;;2.03;1.63;;;18.40;51.30;;;;;;5087785;28;20168;-19
2022/03/14 10:58:11;;;;;;;2.80;1.77;;;18.40;51.20;;;;;;5088250;28;20200;-17
2022/03/14 11:01:05;;;;;;;2.67;1.60;;;18.40;51.20;;;;;;5089079;28;20437;-18
2022/03/14 11:03:32;;;;;;;3.40;1.60;;;18.40;51.20;;;;;;5084625;28;20402;-18
2022/03/14 11:06:00;;;;;;;4.60;1.70;;;18.40;51.10;;;;;;5088756;28;20172;-18
2022/03/14 11:08:41;;;;;;;2.30;1.50;;;18.40;51.10;;;;;;5091660;28;20183;-19
2022/03/14 11:11:14;;;;;;;2.20;1.43;;;18.40;51.10;;;;;;5091440;28;20408;-22
2022/03/14 11:13:44;;;;;;;3.17;1.50;;;18.50;51.10;;;;;;5093068;28;20221;-18
2022/03/14 11:16:28;;;;;;;4.03;1.67;;;18.50;51.10;;;;;;5090925;28;20173;-20
2022/03/14 11:18:55;;;;;;;3.40;1.57;;;18.50;51.10;;;;;;5090690;28;20162;-16
2022/03/14 11:21:24;;;;;;;2.23;1.60;;;18.50;51.10;;;;;;5092204;28;20201;-16
2022/03/14 11:23:52;;;;;;;3.43;1.60;;;18.50;51.00;;;;;;5091363;28;20186;-21
2022/03/14 11:26:20;;;;;;;2.77;1.47;;;18.60;51.00;;;;;;5092247;28;20464;-19
2022/03/14 11:28:49;;;;;;;2.67;1.67;;;18.60;50.90;;;;;;5091021;28;20610;-20
2022/03/14 11:31:17;;;;;;;4.07;1.60;;;18.60;50.90;;;;;;5089513;28;20584;-21
2022/03/14 11:33:43;;;;;;;2.67;1.60;;;18.60;50.80;;;;;;5092468;28;20618;-20
2022/03/14 11:36:09;;;;;;;2.43;1.60;;;18.60;50.80;;;;;;5091347;28;20604;-17
2022/03/14 11:38:35;;;;;;;2.80;1.50;;;18.70;50.90;;;;;;5091852;28;20233;-19
2022/03/14 11:41:02;;;;;;;3.47;1.77;;;18.60;50.80;;;;;;5089754;28;20186;-20
2022/03/14 11:43:28;;;;;;;2.33;1.60;;;18.70;50.80;;;;;;5089875;28;20401;-22
2022/03/14 11:45:57;;;;;;;2.40;1.70;;;18.70;50.70;;;;;;5090296;28;20168;-20
2022/03/14 11:48:28;;;;;;;1.67;1.43;;;18.70;50.60;;;;;;5088474;28;20259;-21
2022/03/14 11:50:59;;;;;;;1.83;1.63;;;18.70;50.60;;;;;;5090342;28;20418;-16
2022/03/14 11:53:27;;;;;;;2.80;1.80;;;18.70;50.70;;;;;;5091257;28;20379;-20
2022/03/14 11:56:13;;;;;;;1.87;1.40;;;18.70;50.70;;;;;;5090307;28;20254;-20
2022/03/14 11:58:58;;;;;;;2.57;1.43;;;18.70;50.80;;;;;;5091604;28;20188;-20
2022/03/14 12:01:27;;;;;;;3.17;1.47;;;18.70;50.80;;;;;;5087286;28;20609;-21
2022/03/14 12:03:54;;;;;;;3.17;1.40;;;18.70;50.90;;;;;;5090835;28;20320;-18
2022/03/14 12:06:52;;;;;;;2.00;1.57;;;18.80;50.80;;;;;;5090618;28;20185;-18
2022/03/14 12:09:24;;;;;;;2.30;1.30;;;18.80;50.70;;;;;;5088490;28;20177;-20
2022/03/14 12:12:05;;;;;;;1.60;1.30;;;18.80;50.70;;;;;;5088869;28;20349;-18
2022/03/14 12:14:44;;;;;;;2.07;1.50;;;18.80;50.70;;;;;;5090970;28;20206;-16
2022/03/14 12:17:13;;;;;;;2.60;1.43;;;18.80;50.70;;;;;;5089663;28;20174;-23
2022/03/14 12:19:42;;;;;;;2.30;1.60;;;18.80;50.80;;;;;;5090652;28;20206;-21
2022/03/14 12:22:13;;;;;;;2.53;1.50;;;18.80;50.70;;;;;;5090655;28;20581;-20
2022/03/14 12:24:39;;;;;;;2.43;1.67;;;18.80;50.70;;;;;;5090354;28;20234;-20
2022/03/14 12:27:15;;;;;;;3.37;1.30;;;18.80;50.70;;;;;;5089953;28;20176;-18
2022/03/14 12:29:42;;;;;;;3.77;1.77;;;18.80;50.70;;;;;;5090259;28;20176;-17
2022/03/14 12:32:26;;;;;;;2.17;1.30;;;18.80;50.70;;;;;;5087659;28;20388;-17
2022/03/14 12:35:06;;;;;;;1.63;1.30;;;18.80;50.80;;;;;;5087758;28;20280;-17
2022/03/14 12:37:35;;;;;;;1.80;1.40;;;18.80;50.90;;;;;;5089532;28;20170;-18
2022/03/14 12:40:05;;;;;;;2.17;1.50;;;18.80;50.90;;;;;;5089594;28;20423;-17
2022/03/14 12:42:43;;;;;;;2.40;1.50;;;18.80;50.90;;;;;;5091034;28;20415;-21
2022/03/14 12:45:27;;;;;;;2.83;1.70;;;18.80;50.90;;;;;;5090018;28;20191;-20
2022/03/14 12:48:05;;;;;;;3.40;1.60;;;18.80;50.90;;;;;;5090270;28;20177;-21
2022/03/14 12:50:44;;;;;;;1.80;1.43;;;18.90;50.90;;;;;;5087992;28;20185;-17
2022/03/14 12:53:13;;;;;;;2.90;1.37;;;18.90;50.90;;;;;;5089223;28;20215;-22